sensor_id;sensor_type;location;lat;lon;timestamp;temperature;humidity
21590;DHT22;10957;50.968;6.828;2022-07-29T00:01:59;17.10;18.40
21590;DHT22;10957;50.968;6.828;2022-07-29T00:07:00;17.20;19.40
21590;DHT22;10957;50.968;6.828;2022-07-29T00:12:01;17.20;19.90
21590;DHT22;10957;50.968;6.828;2022-07-29T00:17:02;17.20;19.30
21590;DHT22;10957;50.968;6.828;2022-07-29T00:22:03;17.20;20.90
21590;DHT22;10957;50.968;6.828;2022-07-29T00:27:04;17.10;21.00
21590;DHT22;10957;50.968;6.828;2022-07-29T00:32:05;17.10;20.90
21590;DHT22;10957;50.968;6.828;2022-07-29T00:37:05;17.10;22.90
21590;DHT22;10957;50.968;6.828;2022-07-29T00:42:06;17.20;21.40
21590;DHT22;10957;50.968;6.828;2022-07-29T00:47:09;17.20;24.10
21590;DHT22;10957;50.968;6.828;2022-07-29T00:52:11;17.20;22.60
21590;DHT22;10957;50.968;6.828;2022-07-29T00:57:12;17.30;20.20
21590;DHT22;10957;50.968;6.828;2022-07-29T01:02:13;17.40;18.60
21590;DHT22;10957;50.968;6.828;2022-07-29T01:07:14;17.40;18.70
21590;DHT22;10957;50.968;6.828;2022-07-29T01:12:23;17.20;24.90
21590;DHT22;10957;50.968;6.828;2022-07-29T01:17:28;17.20;23.30
21590;DHT22;10957;50.968;6.828;2022-07-29T01:28:34;17.20;23.50
21590;DHT22;10957;50.968;6.828;2022-07-29T01:33:41;17.20;23.30
21590;DHT22;10957;50.968;6.828;2022-07-29T01:39:11;17.20;24.00
21590;DHT22;10957;50.968;6.828;2022-07-29T01:44:20;17.10;26.10
21590;DHT22;10957;50.968;6.828;2022-07-29T01:49:29;17.10;24.60
21590;DHT22;10957;50.968;6.828;2022-07-29T01:54:41;17.00;29.20
21590;DHT22;10957;50.968;6.828;2022-07-29T01:59:45;17.00;30.00
21590;DHT22;10957;50.968;6.828;2022-07-29T02:04:47;17.00;32.40
21590;DHT22;10957;50.968;6.828;2022-07-29T02:09:50;17.00;32.30
21590;DHT22;10957;50.968;6.828;2022-07-29T02:14:53;16.90;30.40
21590;DHT22;10957;50.968;6.828;2022-07-29T02:20:00;16.80;32.20
21590;DHT22;10957;50.968;6.828;2022-07-29T02:25:01;16.80;35.70
21590;DHT22;10957;50.968;6.828;2022-07-29T02:30:03;16.80;34.10
21590;DHT22;10957;50.968;6.828;2022-07-29T02:35:06;16.80;37.50
21590;DHT22;10957;50.968;6.828;2022-07-29T02:40:10;16.60;47.90
21590;DHT22;10957;50.968;6.828;2022-07-29T02:45:11;16.60;54.00
21590;DHT22;10957;50.968;6.828;2022-07-29T02:50:29;16.50;56.50
21590;DHT22;10957;50.968;6.828;2022-07-29T02:55:56;16.40;55.30
21590;DHT22;10957;50.968;6.828;2022-07-29T03:01:01;16.30;53.10
21590;DHT22;10957;50.968;6.828;2022-07-29T03:06:03;16.30;50.40
21590;DHT22;10957;50.968;6.828;2022-07-29T03:11:05;16.40;41.10
21590;DHT22;10957;50.968;6.828;2022-07-29T03:16:10;16.30;37.00
21590;DHT22;10957;50.968;6.828;2022-07-29T03:21:11;16.30;34.10
21590;DHT22;10957;50.968;6.828;2022-07-29T03:26:12;16.30;29.40
21590;DHT22;10957;50.968;6.828;2022-07-29T03:31:13;16.30;29.50
21590;DHT22;10957;50.968;6.828;2022-07-29T03:36:14;16.30;27.50
21590;DHT22;10957;50.968;6.828;2022-07-29T03:41:15;16.40;22.80
21590;DHT22;10957;50.968;6.828;2022-07-29T03:46:17;16.60;19.00
21590;DHT22;10957;50.968;6.828;2022-07-29T03:51:21;16.60;18.00
21590;DHT22;10957;50.968;6.828;2022-07-29T03:56:22;16.50;20.80
21590;DHT22;10957;50.968;6.828;2022-07-29T04:01:23;16.60;21.30
21590;DHT22;10957;50.968;6.828;2022-07-29T04:06:25;16.80;17.30
21590;DHT22;10957;50.968;6.828;2022-07-29T04:11:26;16.70;19.60
21590;DHT22;10957;50.968;6.828;2022-07-29T04:16:26;16.70;18.10
21590;DHT22;10957;50.968;6.828;2022-07-29T04:21:27;16.80;16.40
21590;DHT22;10957;50.968;6.828;2022-07-29T04:26:28;16.80;18.30
21590;DHT22;10957;50.968;6.828;2022-07-29T04:31:29;16.70;19.50
21590;DHT22;10957;50.968;6.828;2022-07-29T04:36:30;16.70;21.20
21590;DHT22;10957;50.968;6.828;2022-07-29T04:41:31;16.60;28.90
21590;DHT22;10957;50.968;6.828;2022-07-29T04:46:32;16.60;31.50
21590;DHT22;10957;50.968;6.828;2022-07-29T04:51:33;16.70;31.10
21590;DHT22;10957;50.968;6.828;2022-07-29T04:56:34;16.60;32.30
21590;DHT22;10957;50.968;6.828;2022-07-29T05:01:35;16.70;32.10
21590;DHT22;10957;50.968;6.828;2022-07-29T05:06:36;16.70;30.60
21590;DHT22;10957;50.968;6.828;2022-07-29T05:11:37;16.70;41.30
21590;DHT22;10957;50.968;6.828;2022-07-29T05:16:38;16.60;54.80
21590;DHT22;10957;50.968;6.828;2022-07-29T05:21:40;16.60;67.90
21590;DHT22;10957;50.968;6.828;2022-07-29T05:26:41;16.70;66.80
21590;DHT22;10957;50.968;6.828;2022-07-29T05:31:42;16.70;73.90
21590;DHT22;10957;50.968;6.828;2022-07-29T05:36:43;16.80;64.40
21590;DHT22;10957;50.968;6.828;2022-07-29T05:41:43;16.90;59.50
21590;DHT22;10957;50.968;6.828;2022-07-29T05:46:44;17.10;43.10
21590;DHT22;10957;50.968;6.828;2022-07-29T05:51:45;17.20;39.30
21590;DHT22;10957;50.968;6.828;2022-07-29T05:56:46;17.30;35.40
21590;DHT22;10957;50.968;6.828;2022-07-29T06:01:47;17.40;35.60
21590;DHT22;10957;50.968;6.828;2022-07-29T06:06:48;17.50;31.20
21590;DHT22;10957;50.968;6.828;2022-07-29T06:11:49;17.60;32.90
21590;DHT22;10957;50.968;6.828;2022-07-29T06:16:50;17.60;36.40
21590;DHT22;10957;50.968;6.828;2022-07-29T06:21:51;17.60;41.90
21590;DHT22;10957;50.968;6.828;2022-07-29T06:26:51;17.50;42.50
21590;DHT22;10957;50.968;6.828;2022-07-29T06:31:52;17.40;38.40
21590;DHT22;10957;50.968;6.828;2022-07-29T06:36:53;17.30;39.80
21590;DHT22;10957;50.968;6.828;2022-07-29T06:41:54;17.20;45.60
21590;DHT22;10957;50.968;6.828;2022-07-29T06:46:59;17.10;58.30
21590;DHT22;10957;50.968;6.828;2022-07-29T06:52:00;16.60;99.90
21590;DHT22;10957;50.968;6.828;2022-07-29T06:57:00;16.50;99.90
21590;DHT22;10957;50.968;6.828;2022-07-29T07:02:01;16.40;99.90
21590;DHT22;10957;50.968;6.828;2022-07-29T07:07:02;16.40;99.90
21590;DHT22;10957;50.968;6.828;2022-07-29T07:12:03;16.50;99.90
21590;DHT22;10957;50.968;6.828;2022-07-29T07:17:04;16.70;99.90
21590;DHT22;10957;50.968;6.828;2022-07-29T07:22:07;16.70;99.90
21590;DHT22;10957;50.968;6.828;2022-07-29T07:27:08;16.70;99.90
21590;DHT22;10957;50.968;6.828;2022-07-29T07:32:08;16.70;99.90
21590;DHT22;10957;50.968;6.828;2022-07-29T07:37:09;16.80;99.90
21590;DHT22;10957;50.968;6.828;2022-07-29T07:42:10;16.90;99.90
21590;DHT22;10957;50.968;6.828;2022-07-29T07:47:13;17.10;99.90
21590;DHT22;10957;50.968;6.828;2022-07-29T07:52:15;17.10;99.90
21590;DHT22;10957;50.968;6.828;2022-07-29T07:57:16;17.10;99.90
21590;DHT22;10957;50.968;6.828;2022-07-29T08:02:17;17.10;99.90
21590;DHT22;10957;50.968;6.828;2022-07-29T08:07:18;17.10;99.90
21590;DHT22;10957;50.968;6.828;2022-07-29T08:12:19;17.20;99.90
21590;DHT22;10957;50.968;6.828;2022-07-29T08:17:20;17.30;99.90
21590;DHT22;10957;50.968;6.828;2022-07-29T08:22:20;17.30;99.90
21590;DHT22;10957;50.968;6.828;2022-07-29T08:27:22;17.40;99.90
21590;DHT22;10957;50.968;6.828;2022-07-29T08:32:23;17.50;99.90
21590;DHT22;10957;50.968;6.828;2022-07-29T08:37:23;17.50;99.90
21590;DHT22;10957;50.968;6.828;2022-07-29T08:42:24;17.60;99.90
21590;DHT22;10957;50.968;6.828;2022-07-29T08:47:25;17.70;99.90
21590;DHT22;10957;50.968;6.828;2022-07-29T08:52:29;17.80;99.90
21590;DHT22;10957;50.968;6.828;2022-07-29T08:57:33;17.80;99.90
21590;DHT22;10957;50.968;6.828;2022-07-29T09:02:39;17.70;99.90
21590;DHT22;10957;50.968;6.828;2022-07-29T09:07:40;17.70;99.90
21590;DHT22;10957;50.968;6.828;2022-07-29T09:12:43;17.90;99.90
21590;DHT22;10957;50.968;6.828;2022-07-29T09:17:46;17.80;99.90
21590;DHT22;10957;50.968;6.828;2022-07-29T09:22:48;17.70;99.90
21590;DHT22;10957;50.968;6.828;2022-07-29T09:27:50;17.90;99.90
21590;DHT22;10957;50.968;6.828;2022-07-29T09:32:56;18.30;99.90
21590;DHT22;10957;50.968;6.828;2022-07-29T09:37:57;18.70;99.90
21590;DHT22;10957;50.968;6.828;2022-07-29T09:42:58;19.20;69.30
21590;DHT22;10957;50.968;6.828;2022-07-29T09:48:14;19.60;55.20
21590;DHT22;10957;50.968;6.828;2022-07-29T09:53:51;20.30;51.90
21590;DHT22;10957;50.968;6.828;2022-07-29T09:59:05;20.30;40.90
21590;DHT22;10957;50.968;6.828;2022-07-29T10:04:07;20.20;36.40
21590;DHT22;10957;50.968;6.828;2022-07-29T10:09:11;20.10;30.00
21590;DHT22;10957;50.968;6.828;2022-07-29T10:14:12;20.10;31.60
21590;DHT22;10957;50.968;6.828;2022-07-29T10:19:13;20.30;51.80
21590;DHT22;10957;50.968;6.828;2022-07-29T10:24:14;20.10;31.00
21590;DHT22;10957;50.968;6.828;2022-07-29T10:29:15;20.60;25.70
21590;DHT22;10957;50.968;6.828;2022-07-29T10:40:00;21.50;20.40
21590;DHT22;10957;50.968;6.828;2022-07-29T10:45:26;22.20;12.20
21590;DHT22;10957;50.968;6.828;2022-07-29T10:50:27;22.80;6.90
21590;DHT22;10957;50.968;6.828;2022-07-29T10:55:37;22.50;5.20
21590;DHT22;10957;50.968;6.828;2022-07-29T11:00:40;22.40;9.00
21590;DHT22;10957;50.968;6.828;2022-07-29T11:05:52;22.80;2.50
21590;DHT22;10957;50.968;6.828;2022-07-29T11:11:36;23.10;1.00
21590;DHT22;10957;50.968;6.828;2022-07-29T11:17:00;23.00;1.00
21590;DHT22;10957;50.968;6.828;2022-07-29T11:22:03;23.00;1.00
21590;DHT22;10957;50.968;6.828;2022-07-29T11:27:08;23.10;1.00
21590;DHT22;10957;50.968;6.828;2022-07-29T11:32:12;23.70;1.00
21590;DHT22;10957;50.968;6.828;2022-07-29T11:37:17;23.90;1.00
21590;DHT22;10957;50.968;6.828;2022-07-29T11:47:25;23.90;1.00
21590;DHT22;10957;50.968;6.828;2022-07-29T11:52:52;23.80;1.00
21590;DHT22;10957;50.968;6.828;2022-07-29T11:57:56;23.90;1.00
21590;DHT22;10957;50.968;6.828;2022-07-29T12:03:04;24.00;1.00
21590;DHT22;10957;50.968;6.828;2022-07-29T12:08:11;24.40;1.00
21590;DHT22;10957;50.968;6.828;2022-07-29T12:13:14;24.40;1.00
21590;DHT22;10957;50.968;6.828;2022-07-29T12:18:17;24.30;1.00
21590;DHT22;10957;50.968;6.828;2022-07-29T12:23:18;24.10;1.00
21590;DHT22;10957;50.968;6.828;2022-07-29T12:28:19;23.90;1.00
21590;DHT22;10957;50.968;6.828;2022-07-29T12:33:23;24.30;1.00
21590;DHT22;10957;50.968;6.828;2022-07-29T12:38:25;24.40;1.00
21590;DHT22;10957;50.968;6.828;2022-07-29T12:43:26;24.90;1.00
21590;DHT22;10957;50.968;6.828;2022-07-29T12:48:38;24.80;1.00
21590;DHT22;10957;50.968;6.828;2022-07-29T12:53:39;25.00;1.00
21590;DHT22;10957;50.968;6.828;2022-07-29T12:58:41;24.60;1.00
21590;DHT22;10957;50.968;6.828;2022-07-29T13:03:50;25.00;1.00
21590;DHT22;10957;50.968;6.828;2022-07-29T13:14:04;24.90;1.00
21590;DHT22;10957;50.968;6.828;2022-07-29T13:19:07;24.70;1.00
21590;DHT22;10957;50.968;6.828;2022-07-29T13:24:08;24.20;1.00
21590;DHT22;10957;50.968;6.828;2022-07-29T13:29:12;24.30;1.00
21590;DHT22;10957;50.968;6.828;2022-07-29T13:34:13;24.40;1.00
21590;DHT22;10957;50.968;6.828;2022-07-29T13:39:14;24.90;1.00
21590;DHT22;10957;50.968;6.828;2022-07-29T13:44:15;25.00;1.00
21590;DHT22;10957;50.968;6.828;2022-07-29T13:49:15;25.30;1.00
21590;DHT22;10957;50.968;6.828;2022-07-29T13:54:16;25.70;1.00
21590;DHT22;10957;50.968;6.828;2022-07-29T13:59:17;25.40;1.00
21590;DHT22;10957;50.968;6.828;2022-07-29T14:04:18;25.10;1.00
21590;DHT22;10957;50.968;6.828;2022-07-29T14:09:19;25.00;1.00
21590;DHT22;10957;50.968;6.828;2022-07-29T14:14:20;25.00;1.00
21590;DHT22;10957;50.968;6.828;2022-07-29T14:19:22;25.10;1.00
21590;DHT22;10957;50.968;6.828;2022-07-29T14:24:23;25.30;1.00
21590;DHT22;10957;50.968;6.828;2022-07-29T14:29:24;25.20;1.00
21590;DHT22;10957;50.968;6.828;2022-07-29T14:34:25;25.40;1.00
21590;DHT22;10957;50.968;6.828;2022-07-29T14:39:26;25.40;1.00
21590;DHT22;10957;50.968;6.828;2022-07-29T14:44:27;26.00;1.00
21590;DHT22;10957;50.968;6.828;2022-07-29T14:49:31;25.90;1.00
21590;DHT22;10957;50.968;6.828;2022-07-29T14:54:32;25.70;1.00
21590;DHT22;10957;50.968;6.828;2022-07-29T14:59:33;26.00;1.00
21590;DHT22;10957;50.968;6.828;2022-07-29T15:04:33;25.60;1.00
21590;DHT22;10957;50.968;6.828;2022-07-29T15:09:35;25.40;1.00
21590;DHT22;10957;50.968;6.828;2022-07-29T15:14:36;25.10;1.00
21590;DHT22;10957;50.968;6.828;2022-07-29T15:19:37;24.80;1.00
21590;DHT22;10957;50.968;6.828;2022-07-29T15:24:38;25.50;1.00
21590;DHT22;10957;50.968;6.828;2022-07-29T15:29:43;25.80;1.00
21590;DHT22;10957;50.968;6.828;2022-07-29T15:34:44;25.80;1.00
21590;DHT22;10957;50.968;6.828;2022-07-29T15:39:45;26.10;1.00
21590;DHT22;10957;50.968;6.828;2022-07-29T15:44:45;26.00;1.00
21590;DHT22;10957;50.968;6.828;2022-07-29T15:49:46;25.50;1.00
21590;DHT22;10957;50.968;6.828;2022-07-29T15:54:49;25.50;1.00
21590;DHT22;10957;50.968;6.828;2022-07-29T15:59:50;25.60;1.00
21590;DHT22;10957;50.968;6.828;2022-07-29T16:04:51;25.10;1.00
21590;DHT22;10957;50.968;6.828;2022-07-29T16:09:52;25.20;1.00
21590;DHT22;10957;50.968;6.828;2022-07-29T16:14:53;25.50;1.00
21590;DHT22;10957;50.968;6.828;2022-07-29T16:19:53;25.20;1.00
21590;DHT22;10957;50.968;6.828;2022-07-29T16:24:54;24.70;1.00
21590;DHT22;10957;50.968;6.828;2022-07-29T16:29:55;24.60;1.00
21590;DHT22;10957;50.968;6.828;2022-07-29T16:34:56;24.50;1.00
21590;DHT22;10957;50.968;6.828;2022-07-29T16:39:58;24.70;1.00
21590;DHT22;10957;50.968;6.828;2022-07-29T16:44:58;25.10;1.00
21590;DHT22;10957;50.968;6.828;2022-07-29T16:49:59;25.10;1.00
21590;DHT22;10957;50.968;6.828;2022-07-29T16:55:00;25.20;1.00
21590;DHT22;10957;50.968;6.828;2022-07-29T17:00:01;25.10;1.00
21590;DHT22;10957;50.968;6.828;2022-07-29T17:05:02;25.20;1.00
21590;DHT22;10957;50.968;6.828;2022-07-29T17:10:03;25.00;1.00
21590;DHT22;10957;50.968;6.828;2022-07-29T17:15:07;24.90;1.00
21590;DHT22;10957;50.968;6.828;2022-07-29T17:20:08;25.00;1.00
21590;DHT22;10957;50.968;6.828;2022-07-29T17:25:09;24.80;1.00
21590;DHT22;10957;50.968;6.828;2022-07-29T17:30:10;24.70;1.00
21590;DHT22;10957;50.968;6.828;2022-07-29T17:35:11;24.60;1.00
21590;DHT22;10957;50.968;6.828;2022-07-29T17:40:30;24.60;1.00
21590;DHT22;10957;50.968;6.828;2022-07-29T17:45:31;24.60;1.00
21590;DHT22;10957;50.968;6.828;2022-07-29T17:50:32;24.50;1.00
21590;DHT22;10957;50.968;6.828;2022-07-29T17:55:33;24.40;1.00
21590;DHT22;10957;50.968;6.828;2022-07-29T18:00:34;24.40;1.00
21590;DHT22;10957;50.968;6.828;2022-07-29T18:05:35;24.10;1.00
21590;DHT22;10957;50.968;6.828;2022-07-29T18:10:36;24.10;1.00
21590;DHT22;10957;50.968;6.828;2022-07-29T18:15:40;23.90;1.00
21590;DHT22;10957;50.968;6.828;2022-07-29T18:20:41;23.60;1.00
21590;DHT22;10957;50.968;6.828;2022-07-29T18:25:42;23.60;1.00
21590;DHT22;10957;50.968;6.828;2022-07-29T18:30:43;23.40;1.00
21590;DHT22;10957;50.968;6.828;2022-07-29T18:35:46;23.30;1.00
21590;DHT22;10957;50.968;6.828;2022-07-29T18:40:48;23.20;1.00
21590;DHT22;10957;50.968;6.828;2022-07-29T18:45:49;23.10;1.00
21590;DHT22;10957;50.968;6.828;2022-07-29T18:50:50;22.80;1.00
21590;DHT22;10957;50.968;6.828;2022-07-29T18:55:51;22.70;1.00
21590;DHT22;10957;50.968;6.828;2022-07-29T19:00:51;22.40;1.00
21590;DHT22;10957;50.968;6.828;2022-07-29T19:05:52;22.20;1.00
21590;DHT22;10957;50.968;6.828;2022-07-29T19:10:53;22.00;1.00
21590;DHT22;10957;50.968;6.828;2022-07-29T19:15:54;21.90;1.00
21590;DHT22;10957;50.968;6.828;2022-07-29T19:20:54;21.60;1.00
21590;DHT22;10957;50.968;6.828;2022-07-29T19:25:55;21.40;1.00
21590;DHT22;10957;50.968;6.828;2022-07-29T19:30:57;21.10;1.00
21590;DHT22;10957;50.968;6.828;2022-07-29T19:35:58;20.90;1.00
21590;DHT22;10957;50.968;6.828;2022-07-29T19:40:59;20.70;2.40
21590;DHT22;10957;50.968;6.828;2022-07-29T19:45:59;20.50;5.30
21590;DHT22;10957;50.968;6.828;2022-07-29T19:51:00;20.40;5.50
21590;DHT22;10957;50.968;6.828;2022-07-29T19:56:01;20.30;6.80
21590;DHT22;10957;50.968;6.828;2022-07-29T20:01:02;20.10;7.50
21590;DHT22;10957;50.968;6.828;2022-07-29T20:06:03;20.00;9.00
21590;DHT22;10957;50.968;6.828;2022-07-29T20:11:05;19.80;10.10
21590;DHT22;10957;50.968;6.828;2022-07-29T20:16:06;19.70;14.20
21590;DHT22;10957;50.968;6.828;2022-07-29T20:21:07;19.60;15.80
21590;DHT22;10957;50.968;6.828;2022-07-29T20:26:08;19.40;19.90
21590;DHT22;10957;50.968;6.828;2022-07-29T20:31:09;19.30;19.90
21590;DHT22;10957;50.968;6.828;2022-07-29T20:36:10;19.20;20.20
21590;DHT22;10957;50.968;6.828;2022-07-29T20:41:11;19.20;20.90
21590;DHT22;10957;50.968;6.828;2022-07-29T20:46:11;19.20;23.10
21590;DHT22;10957;50.968;6.828;2022-07-29T20:51:13;19.30;23.50
21590;DHT22;10957;50.968;6.828;2022-07-29T20:56:13;19.20;22.80
21590;DHT22;10957;50.968;6.828;2022-07-29T21:01:14;19.30;24.80
21590;DHT22;10957;50.968;6.828;2022-07-29T21:06:15;19.20;27.20
21590;DHT22;10957;50.968;6.828;2022-07-29T21:11:16;19.20;28.50
21590;DHT22;10957;50.968;6.828;2022-07-29T21:16:17;19.10;32.20
21590;DHT22;10957;50.968;6.828;2022-07-29T21:21:19;19.10;37.50
21590;DHT22;10957;50.968;6.828;2022-07-29T21:26:20;19.10;35.30
21590;DHT22;10957;50.968;6.828;2022-07-29T21:31:21;19.10;35.30
21590;DHT22;10957;50.968;6.828;2022-07-29T21:36:21;19.00;41.30
21590;DHT22;10957;50.968;6.828;2022-07-29T21:41:22;19.00;38.30
21590;DHT22;10957;50.968;6.828;2022-07-29T21:46:23;18.90;41.30
21590;DHT22;10957;50.968;6.828;2022-07-29T21:51:24;18.90;41.20
21590;DHT22;10957;50.968;6.828;2022-07-29T21:56:24;18.90;42.20
21590;DHT22;10957;50.968;6.828;2022-07-29T22:01:25;18.80;45.30
21590;DHT22;10957;50.968;6.828;2022-07-29T22:06:26;18.80;46.60
21590;DHT22;10957;50.968;6.828;2022-07-29T22:11:27;18.70;52.70
21590;DHT22;10957;50.968;6.828;2022-07-29T22:16:27;18.60;52.80
21590;DHT22;10957;50.968;6.828;2022-07-29T22:21:29;18.60;54.00
21590;DHT22;10957;50.968;6.828;2022-07-29T22:26:30;18.50;56.40
21590;DHT22;10957;50.968;6.828;2022-07-29T22:31:31;18.40;63.90
21590;DHT22;10957;50.968;6.828;2022-07-29T22:36:32;18.30;66.50
21590;DHT22;10957;50.968;6.828;2022-07-29T22:41:32;18.20;69.30
21590;DHT22;10957;50.968;6.828;2022-07-29T22:46:33;18.10;73.30
21590;DHT22;10957;50.968;6.828;2022-07-29T22:51:34;18.00;76.50
21590;DHT22;10957;50.968;6.828;2022-07-29T22:56:35;17.80;81.10
21590;DHT22;10957;50.968;6.828;2022-07-29T23:01:36;17.70;89.70
21590;DHT22;10957;50.968;6.828;2022-07-29T23:06:37;17.60;80.10
21590;DHT22;10957;50.968;6.828;2022-07-29T23:11:37;17.60;73.20
21590;DHT22;10957;50.968;6.828;2022-07-29T23:16:38;17.50;74.60
21590;DHT22;10957;50.968;6.828;2022-07-29T23:21:39;17.40;80.80
21590;DHT22;10957;50.968;6.828;2022-07-29T23:26:40;17.30;85.60
21590;DHT22;10957;50.968;6.828;2022-07-29T23:31:40;17.20;92.90
21590;DHT22;10957;50.968;6.828;2022-07-29T23:36:41;17.10;93.40
21590;DHT22;10957;50.968;6.828;2022-07-29T23:41:42;17.10;97.40
21590;DHT22;10957;50.968;6.828;2022-07-29T23:46:43;17.10;99.90
21590;DHT22;10957;50.968;6.828;2022-07-29T23:51:43;16.90;99.90
21590;DHT22;10957;50.968;6.828;2022-07-29T23:56:44;17.00;99.90
